sensor_id;sensor_type;location;lat;lon;timestamp;noise_LAeq;noise_LA_min;noise_LA_max;noise_LA01;noise_LA95
57092;Laerm;42968;52.094;4.328;2024-01-11T00:00:05;39.97;36.20;43.04;;
57092;Laerm;42968;52.094;4.328;2024-01-11T00:02:31;53.21;36.69;69.40;;
57092;Laerm;42968;52.094;4.328;2024-01-11T00:04:56;52.15;36.69;68.57;;
57092;Laerm;42968;52.094;4.328;2024-01-11T00:07:21;58.71;39.21;73.67;;
57092;Laerm;42968;52.094;4.328;2024-01-11T00:09:46;58.58;36.20;76.27;;
57092;Laerm;42968;52.094;4.328;2024-01-11T00:12:12;59.52;36.91;75.96;;
57092;Laerm;42968;52.094;4.328;2024-01-11T00:14:37;55.73;36.69;70.23;;
57092;Laerm;42968;52.094;4.328;2024-01-11T00:17:02;53.87;36.91;68.93;;
57092;Laerm;42968;52.094;4.328;2024-01-11T00:19:27;52.10;36.45;71.49;;
57092;Laerm;42968;52.094;4.328;2024-01-11T00:21:53;58.69;36.56;77.10;;
57092;Laerm;42968;52.094;4.328;2024-01-11T00:24:18;59.68;37.12;76.22;;
57092;Laerm;42968;52.094;4.328;2024-01-11T00:26:43;55.93;35.66;71.86;;
57092;Laerm;42968;52.094;4.328;2024-01-11T00:29:08;54.84;35.36;72.31;;
57092;Laerm;42968;52.094;4.328;2024-01-11T00:31:34;50.12;36.10;66.28;;
57092;Laerm;42968;52.094;4.328;2024-01-11T00:33:59;53.12;36.45;72.72;;
57092;Laerm;42968;52.094;4.328;2024-01-11T00:36:24;39.62;34.69;44.47;;
57092;Laerm;42968;52.094;4.328;2024-01-11T00:38:49;42.55;36.69;55.13;;
57092;Laerm;42968;52.094;4.328;2024-01-11T00:41:14;58.44;37.88;74.95;;
57092;Laerm;42968;52.094;4.328;2024-01-11T00:43:40;42.52;35.36;58.72;;
57092;Laerm;42968;52.094;4.328;2024-01-11T00:46:05;40.33;36.20;44.35;;
57092;Laerm;42968;52.094;4.328;2024-01-11T00:48:30;39.73;35.36;42.22;;
57092;Laerm;42968;52.094;4.328;2024-01-11T00:50:55;54.96;36.20;75.09;;
57092;Laerm;42968;52.094;4.328;2024-01-11T00:53:21;59.23;37.32;78.00;;
57092;Laerm;42968;52.094;4.328;2024-01-11T00:55:46;53.51;36.10;70.82;;
57092;Laerm;42968;52.094;4.328;2024-01-11T00:58:11;52.89;35.94;72.77;;
57092;Laerm;42968;52.094;4.328;2024-01-11T01:00:36;41.78;36.45;48.28;;
57092;Laerm;42968;52.094;4.328;2024-01-11T01:03:01;40.09;36.20;45.83;;
57092;Laerm;42968;52.094;4.328;2024-01-11T01:05:27;57.86;37.88;71.16;;
57092;Laerm;42968;52.094;4.328;2024-01-11T01:07:52;52.52;36.20;69.44;;
57092;Laerm;42968;52.094;4.328;2024-01-11T01:10:20;50.13;36.20;66.30;;
57092;Laerm;42968;52.094;4.328;2024-01-11T01:12:45;41.67;36.20;57.20;;
57092;Laerm;42968;52.094;4.328;2024-01-11T01:15:10;52.56;35.94;68.96;;
57092;Laerm;42968;52.094;4.328;2024-01-11T01:17:36;39.90;35.36;43.24;;
57092;Laerm;42968;52.094;4.328;2024-01-11T01:20:02;41.36;36.69;48.05;;
57092;Laerm;42968;52.094;4.328;2024-01-11T01:22:28;42.01;36.69;56.86;;
57092;Laerm;42968;52.094;4.328;2024-01-11T01:24:53;60.56;35.94;77.03;;
57092;Laerm;42968;52.094;4.328;2024-01-11T01:27:18;55.66;36.91;72.79;;
57092;Laerm;42968;52.094;4.328;2024-01-11T01:29:43;39.83;35.36;44.73;;
57092;Laerm;42968;52.094;4.328;2024-01-11T01:32:09;39.62;35.04;42.09;;
57092;Laerm;42968;52.094;4.328;2024-01-11T01:34:34;41.09;35.66;48.05;;
57092;Laerm;42968;52.094;4.328;2024-01-11T01:36:59;53.00;37.70;72.70;;
57092;Laerm;42968;52.094;4.328;2024-01-11T01:39:24;58.07;36.20;77.54;;
57092;Laerm;42968;52.094;4.328;2024-01-11T01:41:49;41.58;35.94;49.04;;
57092;Laerm;42968;52.094;4.328;2024-01-11T01:44:15;49.59;36.69;71.02;;
57092;Laerm;42968;52.094;4.328;2024-01-11T01:46:40;57.41;36.91;76.86;;
57092;Laerm;42968;52.094;4.328;2024-01-11T01:49:05;56.03;35.66;76.95;;
57092;Laerm;42968;52.094;4.328;2024-01-11T01:51:30;52.39;35.36;69.21;;
57092;Laerm;42968;52.094;4.328;2024-01-11T01:53:56;56.88;37.12;69.65;;
57092;Laerm;42968;52.094;4.328;2024-01-11T01:56:22;40.19;35.94;46.89;;
57092;Laerm;42968;52.094;4.328;2024-01-11T01:58:48;56.66;37.12;71.38;;
57092;Laerm;42968;52.094;4.328;2024-01-11T02:01:15;40.83;36.69;47.84;;
57092;Laerm;42968;52.094;4.328;2024-01-11T02:03:40;40.39;36.45;46.57;;
57092;Laerm;42968;52.094;4.328;2024-01-11T02:06:06;40.76;36.45;44.11;;
57092;Laerm;42968;52.094;4.328;2024-01-11T02:08:31;59.82;36.45;78.65;;
57092;Laerm;42968;52.094;4.328;2024-01-11T02:10:57;45.91;35.94;61.97;;
57092;Laerm;42968;52.094;4.328;2024-01-11T02:13:24;41.99;37.12;44.97;;
57092;Laerm;42968;52.094;4.328;2024-01-11T02:15:49;41.11;35.04;50.77;;
57092;Laerm;42968;52.094;4.328;2024-01-11T02:18:14;58.86;36.69;71.28;;
57092;Laerm;42968;52.094;4.328;2024-01-11T02:20:40;40.28;36.20;43.14;;
57092;Laerm;42968;52.094;4.328;2024-01-11T02:23:06;52.24;36.91;68.71;;
57092;Laerm;42968;52.094;4.328;2024-01-11T02:25:32;51.00;36.69;67.29;;
57092;Laerm;42968;52.094;4.328;2024-01-11T02:27:58;59.10;38.05;78.18;;
57092;Laerm;42968;52.094;4.328;2024-01-11T02:30:23;60.97;37.32;79.73;;
57092;Laerm;42968;52.094;4.328;2024-01-11T02:32:49;58.80;36.91;80.90;;
57092;Laerm;42968;52.094;4.328;2024-01-11T02:35:15;40.33;36.69;42.69;;
57092;Laerm;42968;52.094;4.328;2024-01-11T02:37:40;50.05;37.70;64.91;;
57092;Laerm;42968;52.094;4.328;2024-01-11T02:40:06;40.38;37.12;43.77;;
57092;Laerm;42968;52.094;4.328;2024-01-11T02:42:32;57.23;37.12;74.93;;
57092;Laerm;42968;52.094;4.328;2024-01-11T02:44:58;56.33;36.91;74.26;;
57092;Laerm;42968;52.094;4.328;2024-01-11T02:47:23;52.63;37.12;69.03;;
57092;Laerm;42968;52.094;4.328;2024-01-11T02:49:48;53.40;37.12;70.42;;
57092;Laerm;42968;52.094;4.328;2024-01-11T02:52:13;40.74;36.69;45.01;;
57092;Laerm;42968;52.094;4.328;2024-01-11T02:54:39;50.41;36.20;67.88;;
57092;Laerm;42968;52.094;4.328;2024-01-11T02:57:04;49.80;36.91;68.41;;
57092;Laerm;42968;52.094;4.328;2024-01-11T02:59:29;40.56;37.12;46.71;;
57092;Laerm;42968;52.094;4.328;2024-01-11T03:01:54;61.57;37.70;81.35;;
57092;Laerm;42968;52.094;4.328;2024-01-11T03:04:20;40.52;36.69;44.80;;
57092;Laerm;42968;52.094;4.328;2024-01-11T03:06:45;63.11;39.21;79.44;;
57092;Laerm;42968;52.094;4.328;2024-01-11T03:09:10;41.04;37.32;53.18;;
57092;Laerm;42968;52.094;4.328;2024-01-11T03:11:36;59.39;38.52;76.84;;
57092;Laerm;42968;52.094;4.328;2024-01-11T03:14:02;40.30;36.45;43.72;;
57092;Laerm;42968;52.094;4.328;2024-01-11T03:16:28;40.11;36.45;43.29;;
57092;Laerm;42968;52.094;4.328;2024-01-11T03:18:53;40.98;36.69;45.14;;
57092;Laerm;42968;52.094;4.328;2024-01-11T03:21:18;46.94;36.45;63.39;;
57092;Laerm;42968;52.094;4.328;2024-01-11T03:23:43;40.74;37.12;45.42;;
57092;Laerm;42968;52.094;4.328;2024-01-11T03:26:12;56.65;37.88;69.65;;
57092;Laerm;42968;52.094;4.328;2024-01-11T03:28:38;53.50;37.32;68.30;;
57092;Laerm;42968;52.094;4.328;2024-01-11T03:31:03;51.82;36.91;72.01;;
57092;Laerm;42968;52.094;4.328;2024-01-11T03:33:28;57.38;38.67;73.27;;
57092;Laerm;42968;52.094;4.328;2024-01-11T03:35:53;49.68;37.52;68.28;;
57092;Laerm;42968;52.094;4.328;2024-01-11T03:38:19;59.74;39.70;76.76;;
57092;Laerm;42968;52.094;4.328;2024-01-11T03:40:44;42.72;36.45;55.31;;
57092;Laerm;42968;52.094;4.328;2024-01-11T03:43:09;54.85;36.45;72.00;;
57092;Laerm;42968;52.094;4.328;2024-01-11T03:45:34;40.17;36.45;43.14;;
57092;Laerm;42968;52.094;4.328;2024-01-11T03:48:00;58.54;37.52;78.53;;
57092;Laerm;42968;52.094;4.328;2024-01-11T03:50:25;57.62;36.69;75.01;;
57092;Laerm;42968;52.094;4.328;2024-01-11T03:52:50;41.88;37.32;49.52;;
57092;Laerm;42968;52.094;4.328;2024-01-11T03:55:15;57.85;37.12;72.54;;
57092;Laerm;42968;52.094;4.328;2024-01-11T03:57:40;52.44;36.91;70.78;;
57092;Laerm;42968;52.094;4.328;2024-01-11T04:00:06;57.43;38.05;71.68;;
57092;Laerm;42968;52.094;4.328;2024-01-11T04:02:31;58.69;38.05;72.10;;
57092;Laerm;42968;52.094;4.328;2024-01-11T04:04:57;56.13;40.43;73.01;;
57092;Laerm;42968;52.094;4.328;2024-01-11T04:07:22;57.28;40.33;72.61;;
57092;Laerm;42968;52.094;4.328;2024-01-11T04:09:47;58.35;40.98;76.64;;
57092;Laerm;42968;52.094;4.328;2024-01-11T04:12:12;59.77;40.23;73.48;;
57092;Laerm;42968;52.094;4.328;2024-01-11T04:14:38;62.56;42.16;75.47;;
57092;Laerm;42968;52.094;4.328;2024-01-11T04:17:04;57.83;40.03;74.37;;
57092;Laerm;42968;52.094;4.328;2024-01-11T04:19:30;58.68;39.21;75.59;;
57092;Laerm;42968;52.094;4.328;2024-01-11T04:21:55;62.34;42.29;75.78;;
57092;Laerm;42968;52.094;4.328;2024-01-11T04:24:20;61.94;41.48;74.60;;
57092;Laerm;42968;52.094;4.328;2024-01-11T04:26:45;58.04;43.14;72.19;;
57092;Laerm;42968;52.094;4.328;2024-01-11T04:29:10;62.04;39.81;75.46;;
57092;Laerm;42968;52.094;4.328;2024-01-11T04:31:36;64.53;41.22;76.41;;
57092;Laerm;42968;52.094;4.328;2024-01-11T04:34:01;64.29;43.99;78.83;;
57092;Laerm;42968;52.094;4.328;2024-01-11T04:36:26;63.19;43.49;76.71;;
57092;Laerm;42968;52.094;4.328;2024-01-11T04:38:51;63.20;43.19;77.15;;
57092;Laerm;42968;52.094;4.328;2024-01-11T04:41:16;64.06;43.90;78.29;;
57092;Laerm;42968;52.094;4.328;2024-01-11T04:43:42;63.91;44.87;80.12;;
57092;Laerm;42968;52.094;4.328;2024-01-11T04:48:42;64.21;44.38;78.13;;
57092;Laerm;42968;52.094;4.328;2024-01-11T04:51:08;63.12;41.82;76.82;;
57092;Laerm;42968;52.094;4.328;2024-01-11T04:53:35;63.66;44.07;78.17;;
57092;Laerm;42968;52.094;4.328;2024-01-11T04:56:00;63.66;42.76;76.25;;
57092;Laerm;42968;52.094;4.328;2024-01-11T04:58:26;60.75;40.62;74.08;;
57092;Laerm;42968;52.094;4.328;2024-01-11T05:00:51;62.75;42.41;76.12;;
57092;Laerm;42968;52.094;4.328;2024-01-11T05:03:16;64.83;44.69;78.94;;
57092;Laerm;42968;52.094;4.328;2024-01-11T05:05:41;63.62;44.94;78.35;;
57092;Laerm;42968;52.094;4.328;2024-01-11T05:08:08;62.97;42.71;75.16;;
57092;Laerm;42968;52.094;4.328;2024-01-11T05:10:35;61.29;42.53;72.77;;
57092;Laerm;42968;52.094;4.328;2024-01-11T05:13:00;64.30;44.58;74.76;;
57092;Laerm;42968;52.094;4.328;2024-01-11T05:15:25;65.48;43.34;77.03;;
57092;Laerm;42968;52.094;4.328;2024-01-11T05:17:51;67.52;50.30;77.10;;
57092;Laerm;42968;52.094;4.328;2024-01-11T05:20:16;67.68;46.35;77.64;;
57092;Laerm;42968;52.094;4.328;2024-01-11T05:22:41;67.11;47.79;77.68;;
57092;Laerm;42968;52.094;4.328;2024-01-11T05:25:06;66.17;46.50;79.19;;
57092;Laerm;42968;52.094;4.328;2024-01-11T05:27:32;67.63;45.86;80.00;;
57092;Laerm;42968;52.094;4.328;2024-01-11T05:29:57;67.91;50.05;79.61;;
57092;Laerm;42968;52.094;4.328;2024-01-11T05:32:22;66.96;46.25;78.27;;
57092;Laerm;42968;52.094;4.328;2024-01-11T05:34:47;68.19;48.55;81.84;;
57092;Laerm;42968;52.094;4.328;2024-01-11T05:37:12;67.08;50.07;77.98;;
57092;Laerm;42968;52.094;4.328;2024-01-11T05:39:38;69.17;49.40;77.94;;
57092;Laerm;42968;52.094;4.328;2024-01-11T05:42:03;67.46;48.02;79.33;;
57092;Laerm;42968;52.094;4.328;2024-01-11T05:44:28;70.34;49.70;83.15;;
57092;Laerm;42968;52.094;4.328;2024-01-11T05:46:53;69.10;45.75;78.09;;
57092;Laerm;42968;52.094;4.328;2024-01-11T05:49:18;71.19;56.56;83.80;;
57092;Laerm;42968;52.094;4.328;2024-01-11T05:51:44;70.15;48.54;78.32;;
57092;Laerm;42968;52.094;4.328;2024-01-11T05:54:09;69.09;53.59;79.36;;
57092;Laerm;42968;52.094;4.328;2024-01-11T05:56:34;72.06;48.42;81.53;;
57092;Laerm;42968;52.094;4.328;2024-01-11T05:58:59;69.85;53.05;78.18;;
57092;Laerm;42968;52.094;4.328;2024-01-11T06:01:25;70.00;56.39;80.32;;
57092;Laerm;42968;52.094;4.328;2024-01-11T06:03:50;68.62;51.81;77.02;;
57092;Laerm;42968;52.094;4.328;2024-01-11T06:06:15;69.58;48.12;79.25;;
57092;Laerm;42968;52.094;4.328;2024-01-11T06:08:40;69.30;51.91;82.70;;
57092;Laerm;42968;52.094;4.328;2024-01-11T06:11:10;69.36;51.90;78.20;;
57092;Laerm;42968;52.094;4.328;2024-01-11T06:13:35;68.77;50.78;79.35;;
57092;Laerm;42968;52.094;4.328;2024-01-11T06:16:00;69.77;52.69;80.34;;
57092;Laerm;42968;52.094;4.328;2024-01-11T06:18:26;70.55;56.85;81.71;;
57092;Laerm;42968;52.094;4.328;2024-01-11T06:20:51;70.35;47.77;79.60;;
57092;Laerm;42968;52.094;4.328;2024-01-11T06:23:16;70.44;50.58;80.65;;
57092;Laerm;42968;52.094;4.328;2024-01-11T06:25:41;71.85;52.03;83.24;;
57092;Laerm;42968;52.094;4.328;2024-01-11T06:28:07;70.61;52.16;79.12;;
57092;Laerm;42968;52.094;4.328;2024-01-11T06:30:33;69.91;54.25;78.79;;
57092;Laerm;42968;52.094;4.328;2024-01-11T06:32:58;68.42;52.39;77.27;;
57092;Laerm;42968;52.094;4.328;2024-01-11T06:35:23;70.50;55.24;79.75;;
57092;Laerm;42968;52.094;4.328;2024-01-11T06:37:49;71.01;54.65;79.56;;
57092;Laerm;42968;52.094;4.328;2024-01-11T06:40:14;69.41;52.37;79.30;;
57092;Laerm;42968;52.094;4.328;2024-01-11T06:42:39;70.63;56.13;78.87;;
57092;Laerm;42968;52.094;4.328;2024-01-11T06:45:05;70.47;54.67;78.91;;
57092;Laerm;42968;52.094;4.328;2024-01-11T06:47:30;70.72;53.12;85.72;;
57092;Laerm;42968;52.094;4.328;2024-01-11T06:49:55;71.21;54.61;80.71;;
57092;Laerm;42968;52.094;4.328;2024-01-11T06:52:20;69.67;56.22;88.88;;
57092;Laerm;42968;52.094;4.328;2024-01-11T06:54:46;70.38;54.11;78.32;;
57092;Laerm;42968;52.094;4.328;2024-01-11T06:57:11;70.62;55.76;83.18;;
57092;Laerm;42968;52.094;4.328;2024-01-11T06:59:36;72.66;56.05;86.47;;
57092;Laerm;42968;52.094;4.328;2024-01-11T07:02:02;71.97;57.17;81.85;;
57092;Laerm;42968;52.094;4.328;2024-01-11T07:04:27;70.39;52.37;78.40;;
57092;Laerm;42968;52.094;4.328;2024-01-11T07:06:53;70.60;52.50;78.34;;
57092;Laerm;42968;52.094;4.328;2024-01-11T07:09:18;69.22;53.02;77.68;;
57092;Laerm;42968;52.094;4.328;2024-01-11T07:11:43;70.89;58.88;79.00;;
57092;Laerm;42968;52.094;4.328;2024-01-11T07:14:09;70.36;57.31;78.94;;
57092;Laerm;42968;52.094;4.328;2024-01-11T07:16:34;69.56;53.48;76.93;;
57092;Laerm;42968;52.094;4.328;2024-01-11T07:19:00;72.34;57.64;79.92;;
57092;Laerm;42968;52.094;4.328;2024-01-11T07:21:25;70.39;59.59;77.87;;
57092;Laerm;42968;52.094;4.328;2024-01-11T07:23:55;70.76;59.90;80.47;;
57092;Laerm;42968;52.094;4.328;2024-01-11T07:26:20;70.96;55.13;77.36;;
57092;Laerm;42968;52.094;4.328;2024-01-11T07:28:45;70.92;53.08;78.88;;
57092;Laerm;42968;52.094;4.328;2024-01-11T07:31:14;70.06;55.51;76.77;;
57092;Laerm;42968;52.094;4.328;2024-01-11T07:33:39;72.70;54.35;81.97;;
57092;Laerm;42968;52.094;4.328;2024-01-11T07:36:05;77.34;62.17;97.97;;
57092;Laerm;42968;52.094;4.328;2024-01-11T07:38:30;67.58;54.17;75.57;;
57092;Laerm;42968;52.094;4.328;2024-01-11T07:40:56;68.05;58.19;77.92;;
57092;Laerm;42968;52.094;4.328;2024-01-11T07:43:21;65.45;53.92;73.73;;
57092;Laerm;42968;52.094;4.328;2024-01-11T07:45:46;70.15;58.91;77.59;;
57092;Laerm;42968;52.094;4.328;2024-01-11T07:48:11;69.78;56.00;79.08;;
57092;Laerm;42968;52.094;4.328;2024-01-11T07:50:37;69.14;53.74;78.30;;
57092;Laerm;42968;52.094;4.328;2024-01-11T07:53:02;68.99;54.67;79.90;;
57092;Laerm;42968;52.094;4.328;2024-01-11T07:55:27;69.35;50.59;78.27;;
57092;Laerm;42968;52.094;4.328;2024-01-11T07:57:52;71.53;60.58;79.45;;
57092;Laerm;42968;52.094;4.328;2024-01-11T08:00:17;68.70;52.29;79.36;;
57092;Laerm;42968;52.094;4.328;2024-01-11T08:02:43;72.04;51.76;79.34;;
57092;Laerm;42968;52.094;4.328;2024-01-11T08:05:08;67.31;55.14;86.67;;
57092;Laerm;42968;52.094;4.328;2024-01-11T08:07:34;70.72;58.92;83.19;;
57092;Laerm;42968;52.094;4.328;2024-01-11T08:09:59;70.51;54.40;79.31;;
57092;Laerm;42968;52.094;4.328;2024-01-11T08:12:25;70.66;55.89;78.59;;
57092;Laerm;42968;52.094;4.328;2024-01-11T08:14:50;72.00;50.86;81.59;;
57092;Laerm;42968;52.094;4.328;2024-01-11T08:17:15;72.28;56.28;79.97;;
57092;Laerm;42968;52.094;4.328;2024-01-11T08:19:40;71.55;57.00;80.18;;
57092;Laerm;42968;52.094;4.328;2024-01-11T08:22:07;71.26;54.90;86.83;;
57092;Laerm;42968;52.094;4.328;2024-01-11T08:24:32;72.98;55.48;83.24;;
57092;Laerm;42968;52.094;4.328;2024-01-11T08:27:00;72.39;55.42;86.95;;
57092;Laerm;42968;52.094;4.328;2024-01-11T08:29:25;71.06;49.66;85.36;;
57092;Laerm;42968;52.094;4.328;2024-01-11T08:31:50;71.20;53.47;78.95;;
57092;Laerm;42968;52.094;4.328;2024-01-11T08:34:16;71.38;53.55;83.62;;
57092;Laerm;42968;52.094;4.328;2024-01-11T08:36:41;72.13;55.32;86.47;;
57092;Laerm;42968;52.094;4.328;2024-01-11T08:39:07;71.24;54.63;78.09;;
57092;Laerm;42968;52.094;4.328;2024-01-11T08:41:33;71.68;50.81;80.40;;
57092;Laerm;42968;52.094;4.328;2024-01-11T08:43:58;72.34;54.25;78.86;;
57092;Laerm;42968;52.094;4.328;2024-01-11T08:46:24;72.11;53.19;81.35;;
57092;Laerm;42968;52.094;4.328;2024-01-11T08:48:50;70.44;49.16;82.79;;
57092;Laerm;42968;52.094;4.328;2024-01-11T08:51:15;71.88;55.28;81.48;;
57092;Laerm;42968;52.094;4.328;2024-01-11T08:53:41;71.78;60.13;81.71;;
57092;Laerm;42968;52.094;4.328;2024-01-11T08:56:06;71.37;58.99;85.10;;
57092;Laerm;42968;52.094;4.328;2024-01-11T08:58:31;71.81;53.85;79.41;;
57092;Laerm;42968;52.094;4.328;2024-01-11T09:00:56;70.35;57.03;81.02;;
57092;Laerm;42968;52.094;4.328;2024-01-11T09:03:21;70.36;48.74;80.67;;
57092;Laerm;42968;52.094;4.328;2024-01-11T09:05:47;71.01;54.14;80.07;;
57092;Laerm;42968;52.094;4.328;2024-01-11T09:08:12;70.00;55.09;84.64;;
57092;Laerm;42968;52.094;4.328;2024-01-11T09:10:37;70.63;51.71;78.25;;
57092;Laerm;42968;52.094;4.328;2024-01-11T09:13:03;70.57;51.80;82.84;;
57092;Laerm;42968;52.094;4.328;2024-01-11T09:15:28;70.52;51.94;78.49;;
57092;Laerm;42968;52.094;4.328;2024-01-11T09:17:54;69.55;49.10;85.19;;
57092;Laerm;42968;52.094;4.328;2024-01-11T09:20:19;69.64;48.25;78.52;;
57092;Laerm;42968;52.094;4.328;2024-01-11T09:22:45;69.87;48.69;79.49;;
57092;Laerm;42968;52.094;4.328;2024-01-11T09:25:10;71.24;55.94;79.74;;
57092;Laerm;42968;52.094;4.328;2024-01-11T09:27:35;69.41;53.78;81.40;;
57092;Laerm;42968;52.094;4.328;2024-01-11T09:30:01;70.79;52.21;80.98;;
57092;Laerm;42968;52.094;4.328;2024-01-11T09:32:26;70.82;51.70;78.45;;
57092;Laerm;42968;52.094;4.328;2024-01-11T09:34:51;69.17;53.85;79.16;;
57092;Laerm;42968;52.094;4.328;2024-01-11T09:37:17;68.76;50.52;76.47;;
57092;Laerm;42968;52.094;4.328;2024-01-11T09:39:42;69.38;51.34;80.25;;
57092;Laerm;42968;52.094;4.328;2024-01-11T09:42:08;70.81;59.12;82.44;;
57092;Laerm;42968;52.094;4.328;2024-01-11T09:44:37;71.07;50.59;80.44;;
57092;Laerm;42968;52.094;4.328;2024-01-11T09:47:03;69.18;48.00;79.33;;
57092;Laerm;42968;52.094;4.328;2024-01-11T09:49:29;72.02;54.09;89.52;;
57092;Laerm;42968;52.094;4.328;2024-01-11T09:51:55;70.67;54.14;77.87;;
57092;Laerm;42968;52.094;4.328;2024-01-11T09:54:22;70.33;52.41;88.53;;
57092;Laerm;42968;52.094;4.328;2024-01-11T09:56:49;72.37;53.08;87.08;;
57092;Laerm;42968;52.094;4.328;2024-01-11T09:59:15;76.26;50.85;95.06;;
57092;Laerm;42968;52.094;4.328;2024-01-11T10:01:44;70.58;51.13;79.54;;
57092;Laerm;42968;52.094;4.328;2024-01-11T10:04:09;70.46;52.43;81.20;;
57092;Laerm;42968;52.094;4.328;2024-01-11T10:06:35;71.39;54.65;80.23;;
57092;Laerm;42968;52.094;4.328;2024-01-11T10:09:03;71.31;55.24;83.57;;
57092;Laerm;42968;52.094;4.328;2024-01-11T10:11:28;69.87;55.12;78.89;;
57092;Laerm;42968;52.094;4.328;2024-01-11T10:13:57;70.11;53.58;77.76;;
57092;Laerm;42968;52.094;4.328;2024-01-11T10:16:22;70.62;50.82;84.97;;
57092;Laerm;42968;52.094;4.328;2024-01-11T10:18:49;69.98;50.03;83.24;;
57092;Laerm;42968;52.094;4.328;2024-01-11T10:21:14;70.36;50.77;84.93;;
57092;Laerm;42968;52.094;4.328;2024-01-11T10:23:39;69.70;54.78;77.39;;
57092;Laerm;42968;52.094;4.328;2024-01-11T10:26:05;69.53;49.10;78.19;;
57092;Laerm;42968;52.094;4.328;2024-01-11T10:28:32;70.76;49.40;85.08;;
57092;Laerm;42968;52.094;4.328;2024-01-11T10:31:01;71.47;55.14;79.67;;
57092;Laerm;42968;52.094;4.328;2024-01-11T10:33:26;68.47;48.23;77.66;;
57092;Laerm;42968;52.094;4.328;2024-01-11T10:35:51;70.09;49.10;77.83;;
57092;Laerm;42968;52.094;4.328;2024-01-11T10:38:17;70.45;56.62;79.84;;
57092;Laerm;42968;52.094;4.328;2024-01-11T10:40:42;69.60;55.15;78.79;;
57092;Laerm;42968;52.094;4.328;2024-01-11T10:43:11;70.01;55.76;81.36;;
57092;Laerm;42968;52.094;4.328;2024-01-11T10:45:37;68.90;49.20;76.24;;
57092;Laerm;42968;52.094;4.328;2024-01-11T10:48:07;70.07;47.83;78.22;;
57092;Laerm;42968;52.094;4.328;2024-01-11T10:50:36;68.68;45.86;78.00;;
57092;Laerm;42968;52.094;4.328;2024-01-11T10:53:12;71.13;56.97;79.67;;
57092;Laerm;42968;52.094;4.328;2024-01-11T10:55:43;69.43;55.30;78.27;;
57092;Laerm;42968;52.094;4.328;2024-01-11T10:58:09;71.17;53.79;81.97;;
57092;Laerm;42968;52.094;4.328;2024-01-11T11:00:35;70.44;50.37;83.66;;
57092;Laerm;42968;52.094;4.328;2024-01-11T11:03:01;70.39;52.08;80.75;;
57092;Laerm;42968;52.094;4.328;2024-01-11T11:05:28;69.33;52.28;78.47;;
57092;Laerm;42968;52.094;4.328;2024-01-11T11:07:55;70.76;51.13;78.20;;
57092;Laerm;42968;52.094;4.328;2024-01-11T11:10:21;71.15;48.78;80.00;;
57092;Laerm;42968;52.094;4.328;2024-01-11T11:12:46;70.24;47.76;78.48;;
57092;Laerm;42968;52.094;4.328;2024-01-11T11:15:13;68.89;48.23;77.29;;
57092;Laerm;42968;52.094;4.328;2024-01-11T11:17:39;68.74;51.49;78.20;;
57092;Laerm;42968;52.094;4.328;2024-01-11T11:20:06;68.53;48.21;77.77;;
57092;Laerm;42968;52.094;4.328;2024-01-11T11:22:36;69.56;54.73;78.13;;
57092;Laerm;42968;52.094;4.328;2024-01-11T11:25:10;69.61;53.14;78.23;;
57092;Laerm;42968;52.094;4.328;2024-01-11T11:27:36;69.70;48.85;78.76;;
57092;Laerm;42968;52.094;4.328;2024-01-11T11:30:02;69.56;51.63;78.40;;
57092;Laerm;42968;52.094;4.328;2024-01-11T11:32:35;69.77;50.03;77.61;;
57092;Laerm;42968;52.094;4.328;2024-01-11T11:35:01;69.52;53.19;77.28;;
57092;Laerm;42968;52.094;4.328;2024-01-11T11:37:29;69.74;53.64;79.64;;
57092;Laerm;42968;52.094;4.328;2024-01-11T11:39:54;69.16;52.65;86.03;;
57092;Laerm;42968;52.094;4.328;2024-01-11T11:42:21;69.38;49.27;77.60;;
57092;Laerm;42968;52.094;4.328;2024-01-11T11:44:50;70.08;52.42;81.24;;
57092;Laerm;42968;52.094;4.328;2024-01-11T11:47:22;69.93;46.64;80.81;;
57092;Laerm;42968;52.094;4.328;2024-01-11T11:49:58;69.62;48.08;78.26;;
57092;Laerm;42968;52.094;4.328;2024-01-11T11:52:24;69.95;49.51;78.50;;
57092;Laerm;42968;52.094;4.328;2024-01-11T11:54:50;84.19;57.95;108.16;;
57092;Laerm;42968;52.094;4.328;2024-01-11T11:57:16;69.25;51.87;76.95;;
57092;Laerm;42968;52.094;4.328;2024-01-11T11:59:41;69.83;51.66;78.01;;
57092;Laerm;42968;52.094;4.328;2024-01-11T12:02:07;70.41;49.62;78.48;;
57092;Laerm;42968;52.094;4.328;2024-01-11T12:04:40;70.15;50.47;79.21;;
57092;Laerm;42968;52.094;4.328;2024-01-11T12:07:05;69.89;49.07;78.13;;
57092;Laerm;42968;52.094;4.328;2024-01-11T12:09:30;70.16;56.65;78.23;;
57092;Laerm;42968;52.094;4.328;2024-01-11T12:11:55;70.65;54.67;78.33;;
57092;Laerm;42968;52.094;4.328;2024-01-11T12:14:20;69.10;51.80;77.95;;
57092;Laerm;42968;52.094;4.328;2024-01-11T12:16:55;68.89;53.80;76.41;;
57092;Laerm;42968;52.094;4.328;2024-01-11T12:19:20;70.18;50.40;83.02;;
57092;Laerm;42968;52.094;4.328;2024-01-11T12:21:45;70.03;51.64;79.17;;
57092;Laerm;42968;52.094;4.328;2024-01-11T12:24:10;70.25;56.77;79.11;;
57092;Laerm;42968;52.094;4.328;2024-01-11T12:26:36;69.96;47.08;80.11;;
57092;Laerm;42968;52.094;4.328;2024-01-11T12:29:02;71.57;49.72;83.42;;
57092;Laerm;42968;52.094;4.328;2024-01-11T12:31:27;71.27;53.91;79.25;;
57092;Laerm;42968;52.094;4.328;2024-01-11T12:33:52;70.46;54.32;80.20;;
57092;Laerm;42968;52.094;4.328;2024-01-11T12:36:18;68.90;51.52;75.86;;
57092;Laerm;42968;52.094;4.328;2024-01-11T12:38:47;71.74;55.46;83.77;;
57092;Laerm;42968;52.094;4.328;2024-01-11T12:41:13;69.48;52.83;80.28;;
57092;Laerm;42968;52.094;4.328;2024-01-11T12:43:38;70.69;52.41;81.25;;
57092;Laerm;42968;52.094;4.328;2024-01-11T12:46:03;70.66;47.44;80.94;;
57092;Laerm;42968;52.094;4.328;2024-01-11T12:48:29;70.49;48.28;79.74;;
57092;Laerm;42968;52.094;4.328;2024-01-11T12:50:55;68.74;51.50;75.62;;
57092;Laerm;42968;52.094;4.328;2024-01-11T12:53:20;69.92;58.31;77.60;;
57092;Laerm;42968;52.094;4.328;2024-01-11T12:55:48;70.52;56.06;78.61;;
57092;Laerm;42968;52.094;4.328;2024-01-11T12:58:14;69.69;49.52;80.52;;
57092;Laerm;42968;52.094;4.328;2024-01-11T13:00:43;71.34;51.73;77.20;;
57092;Laerm;42968;52.094;4.328;2024-01-11T13:03:09;69.65;48.99;78.41;;
57092;Laerm;42968;52.094;4.328;2024-01-11T13:05:35;71.49;49.91;79.23;;
57092;Laerm;42968;52.094;4.328;2024-01-11T13:08:01;70.27;51.72;79.14;;
57092;Laerm;42968;52.094;4.328;2024-01-11T13:10:27;70.41;57.76;82.78;;
57092;Laerm;42968;52.094;4.328;2024-01-11T13:12:53;71.33;57.16;78.69;;
57092;Laerm;42968;52.094;4.328;2024-01-11T13:15:18;72.15;55.92;83.42;;
57092;Laerm;42968;52.094;4.328;2024-01-11T13:17:43;69.41;50.75;80.97;;
57092;Laerm;42968;52.094;4.328;2024-01-11T13:20:09;69.13;49.96;77.66;;
57092;Laerm;42968;52.094;4.328;2024-01-11T13:22:34;70.18;51.86;78.64;;
57092;Laerm;42968;52.094;4.328;2024-01-11T13:24:59;69.70;57.61;77.50;;
57092;Laerm;42968;52.094;4.328;2024-01-11T13:27:25;70.80;55.86;78.22;;
57092;Laerm;42968;52.094;4.328;2024-01-11T13:29:50;70.61;56.78;78.24;;
57092;Laerm;42968;52.094;4.328;2024-01-11T13:32:16;70.99;54.89;82.88;;
57092;Laerm;42968;52.094;4.328;2024-01-11T13:34:41;71.39;50.07;81.10;;
57092;Laerm;42968;52.094;4.328;2024-01-11T13:37:07;70.96;52.78;78.92;;